sensor_id;sensor_type;location;lat;lon;timestamp;temperature;humidity
23371;DHT22;11858;51.056;3.712;2023-12-29T00:01:57;10.60;99.90
23371;DHT22;11858;51.056;3.712;2023-12-29T00:04:25;10.50;99.90
23371;DHT22;11858;51.056;3.712;2023-12-29T00:06:50;10.50;99.90
23371;DHT22;11858;51.056;3.712;2023-12-29T00:09:16;10.50;99.90
23371;DHT22;11858;51.056;3.712;2023-12-29T00:11:42;10.60;99.90
23371;DHT22;11858;51.056;3.712;2023-12-29T00:14:08;10.50;99.90
23371;DHT22;11858;51.056;3.712;2023-12-29T00:16:33;10.50;99.90
23371;DHT22;11858;51.056;3.712;2023-12-29T00:18:59;10.50;99.90
23371;DHT22;11858;51.056;3.712;2023-12-29T00:21:25;10.40;99.90
23371;DHT22;11858;51.056;3.712;2023-12-29T00:23:50;10.50;99.90
23371;DHT22;11858;51.056;3.712;2023-12-29T00:26:17;10.50;99.90
23371;DHT22;11858;51.056;3.712;2023-12-29T00:28:43;10.50;99.90
23371;DHT22;11858;51.056;3.712;2023-12-29T00:31:13;10.40;99.90
23371;DHT22;11858;51.056;3.712;2023-12-29T00:33:39;10.50;99.90
23371;DHT22;11858;51.056;3.712;2023-12-29T00:36:05;10.40;99.90
23371;DHT22;11858;51.056;3.712;2023-12-29T00:38:31;10.30;99.90
23371;DHT22;11858;51.056;3.712;2023-12-29T00:40:57;10.40;99.90
23371;DHT22;11858;51.056;3.712;2023-12-29T00:43:22;10.40;99.90
23371;DHT22;11858;51.056;3.712;2023-12-29T00:45:48;10.50;99.90
23371;DHT22;11858;51.056;3.712;2023-12-29T00:48:14;10.50;99.90
23371;DHT22;11858;51.056;3.712;2023-12-29T00:50:40;10.50;99.90
23371;DHT22;11858;51.056;3.712;2023-12-29T00:53:05;10.60;99.90
23371;DHT22;11858;51.056;3.712;2023-12-29T00:55:31;10.60;99.90
23371;DHT22;11858;51.056;3.712;2023-12-29T00:57:57;10.60;99.90
23371;DHT22;11858;51.056;3.712;2023-12-29T01:00:22;10.70;99.90
23371;DHT22;11858;51.056;3.712;2023-12-29T01:02:48;10.70;99.90
23371;DHT22;11858;51.056;3.712;2023-12-29T01:05:17;10.70;99.90
23371;DHT22;11858;51.056;3.712;2023-12-29T01:07:43;10.70;99.90
23371;DHT22;11858;51.056;3.712;2023-12-29T01:10:09;10.80;99.90
23371;DHT22;11858;51.056;3.712;2023-12-29T01:12:35;10.80;99.90
23371;DHT22;11858;51.056;3.712;2023-12-29T01:15:00;10.80;99.90
23371;DHT22;11858;51.056;3.712;2023-12-29T01:17:26;10.80;99.90
23371;DHT22;11858;51.056;3.712;2023-12-29T01:19:54;10.80;99.90
23371;DHT22;11858;51.056;3.712;2023-12-29T01:22:19;10.80;99.90
23371;DHT22;11858;51.056;3.712;2023-12-29T01:24:45;10.80;99.90
23371;DHT22;11858;51.056;3.712;2023-12-29T01:27:11;10.70;99.90
23371;DHT22;11858;51.056;3.712;2023-12-29T01:29:37;10.70;99.90
23371;DHT22;11858;51.056;3.712;2023-12-29T01:32:02;10.70;99.90
23371;DHT22;11858;51.056;3.712;2023-12-29T01:34:29;10.80;99.90
23371;DHT22;11858;51.056;3.712;2023-12-29T01:37:03;10.70;99.90
23371;DHT22;11858;51.056;3.712;2023-12-29T01:39:30;10.70;99.90
23371;DHT22;11858;51.056;3.712;2023-12-29T01:41:56;10.60;99.90
23371;DHT22;11858;51.056;3.712;2023-12-29T01:44:22;10.60;99.90
23371;DHT22;11858;51.056;3.712;2023-12-29T01:46:50;10.50;99.90
23371;DHT22;11858;51.056;3.712;2023-12-29T01:49:17;10.50;99.90
23371;DHT22;11858;51.056;3.712;2023-12-29T01:51:44;10.50;99.90
23371;DHT22;11858;51.056;3.712;2023-12-29T01:54:14;10.60;99.90
23371;DHT22;11858;51.056;3.712;2023-12-29T01:56:41;10.60;99.90
23371;DHT22;11858;51.056;3.712;2023-12-29T01:59:07;10.70;99.90
23371;DHT22;11858;51.056;3.712;2023-12-29T02:01:33;10.60;99.90
23371;DHT22;11858;51.056;3.712;2023-12-29T02:04:00;10.60;99.90
23371;DHT22;11858;51.056;3.712;2023-12-29T02:06:27;10.70;99.90
23371;DHT22;11858;51.056;3.712;2023-12-29T02:08:53;10.70;99.90
23371;DHT22;11858;51.056;3.712;2023-12-29T02:11:18;10.70;99.90
23371;DHT22;11858;51.056;3.712;2023-12-29T02:13:44;10.80;99.90
23371;DHT22;11858;51.056;3.712;2023-12-29T02:16:30;10.70;99.90
23371;DHT22;11858;51.056;3.712;2023-12-29T02:18:59;10.60;99.90
23371;DHT22;11858;51.056;3.712;2023-12-29T02:21:29;10.60;99.90
23371;DHT22;11858;51.056;3.712;2023-12-29T02:23:55;10.70;99.90
23371;DHT22;11858;51.056;3.712;2023-12-29T02:26:23;10.50;99.90
23371;DHT22;11858;51.056;3.712;2023-12-29T02:28:59;10.60;99.90
23371;DHT22;11858;51.056;3.712;2023-12-29T02:31:27;10.50;99.90
23371;DHT22;11858;51.056;3.712;2023-12-29T02:33:56;10.50;99.90
23371;DHT22;11858;51.056;3.712;2023-12-29T02:36:24;10.50;99.90
23371;DHT22;11858;51.056;3.712;2023-12-29T02:38:50;10.60;99.90
23371;DHT22;11858;51.056;3.712;2023-12-29T02:41:16;10.50;99.90
23371;DHT22;11858;51.056;3.712;2023-12-29T02:43:41;10.50;99.90
23371;DHT22;11858;51.056;3.712;2023-12-29T02:46:07;10.50;99.90
23371;DHT22;11858;51.056;3.712;2023-12-29T02:48:33;10.60;99.90
23371;DHT22;11858;51.056;3.712;2023-12-29T02:50:59;10.60;99.90
23371;DHT22;11858;51.056;3.712;2023-12-29T02:53:24;10.70;99.90
23371;DHT22;11858;51.056;3.712;2023-12-29T02:55:50;10.70;99.90
23371;DHT22;11858;51.056;3.712;2023-12-29T02:58:15;10.70;99.90
23371;DHT22;11858;51.056;3.712;2023-12-29T03:00:41;10.60;99.90
23371;DHT22;11858;51.056;3.712;2023-12-29T03:03:07;10.60;99.90
23371;DHT22;11858;51.056;3.712;2023-12-29T03:05:32;10.60;99.90
23371;DHT22;11858;51.056;3.712;2023-12-29T03:07:58;10.60;99.90
23371;DHT22;11858;51.056;3.712;2023-12-29T03:10:24;10.60;99.90
23371;DHT22;11858;51.056;3.712;2023-12-29T03:12:49;10.50;99.90
23371;DHT22;11858;51.056;3.712;2023-12-29T03:15:15;10.50;99.90
23371;DHT22;11858;51.056;3.712;2023-12-29T03:17:41;10.50;99.90
23371;DHT22;11858;51.056;3.712;2023-12-29T03:20:07;10.50;99.90
23371;DHT22;11858;51.056;3.712;2023-12-29T03:22:33;10.50;99.90
23371;DHT22;11858;51.056;3.712;2023-12-29T03:24:59;10.50;99.90
23371;DHT22;11858;51.056;3.712;2023-12-29T03:27:25;10.50;99.90
23371;DHT22;11858;51.056;3.712;2023-12-29T03:29:50;10.50;99.90
23371;DHT22;11858;51.056;3.712;2023-12-29T03:32:17;10.50;99.90
23371;DHT22;11858;51.056;3.712;2023-12-29T03:34:42;10.50;99.90
23371;DHT22;11858;51.056;3.712;2023-12-29T03:37:09;10.50;99.90
23371;DHT22;11858;51.056;3.712;2023-12-29T03:39:35;10.50;99.90
23371;DHT22;11858;51.056;3.712;2023-12-29T03:42:01;10.50;99.90
23371;DHT22;11858;51.056;3.712;2023-12-29T03:44:27;10.60;99.90
23371;DHT22;11858;51.056;3.712;2023-12-29T03:46:52;10.60;99.90
23371;DHT22;11858;51.056;3.712;2023-12-29T03:49:18;10.50;99.90
23371;DHT22;11858;51.056;3.712;2023-12-29T03:51:45;10.50;99.90
23371;DHT22;11858;51.056;3.712;2023-12-29T03:54:11;10.50;99.90
23371;DHT22;11858;51.056;3.712;2023-12-29T03:56:37;10.50;99.90
23371;DHT22;11858;51.056;3.712;2023-12-29T03:59:03;10.40;99.90
23371;DHT22;11858;51.056;3.712;2023-12-29T04:01:29;10.40;99.90
23371;DHT22;11858;51.056;3.712;2023-12-29T04:03:54;10.40;99.90
23371;DHT22;11858;51.056;3.712;2023-12-29T04:06:20;10.30;99.90
23371;DHT22;11858;51.056;3.712;2023-12-29T04:08:46;10.30;99.90
23371;DHT22;11858;51.056;3.712;2023-12-29T04:11:12;10.20;99.90
23371;DHT22;11858;51.056;3.712;2023-12-29T04:13:37;10.30;99.90
23371;DHT22;11858;51.056;3.712;2023-12-29T04:16:03;10.40;99.90
23371;DHT22;11858;51.056;3.712;2023-12-29T04:18:29;10.30;99.90
23371;DHT22;11858;51.056;3.712;2023-12-29T04:20:55;10.40;99.90
23371;DHT22;11858;51.056;3.712;2023-12-29T04:23:21;10.40;99.90
23371;DHT22;11858;51.056;3.712;2023-12-29T04:25:46;10.20;99.90
23371;DHT22;11858;51.056;3.712;2023-12-29T04:28:12;10.20;99.90
23371;DHT22;11858;51.056;3.712;2023-12-29T04:30:38;10.20;99.90
23371;DHT22;11858;51.056;3.712;2023-12-29T04:33:04;10.30;99.90
23371;DHT22;11858;51.056;3.712;2023-12-29T04:35:30;10.30;99.90
23371;DHT22;11858;51.056;3.712;2023-12-29T04:37:56;10.40;99.90
23371;DHT22;11858;51.056;3.712;2023-12-29T04:40:21;10.40;99.90
23371;DHT22;11858;51.056;3.712;2023-12-29T04:42:47;10.40;99.90
23371;DHT22;11858;51.056;3.712;2023-12-29T04:45:13;10.40;99.90
23371;DHT22;11858;51.056;3.712;2023-12-29T04:47:38;10.40;99.90
23371;DHT22;11858;51.056;3.712;2023-12-29T04:50:05;10.40;99.90
23371;DHT22;11858;51.056;3.712;2023-12-29T04:52:34;10.50;99.90
23371;DHT22;11858;51.056;3.712;2023-12-29T04:54:59;10.50;99.90
23371;DHT22;11858;51.056;3.712;2023-12-29T04:57:25;10.50;99.90
23371;DHT22;11858;51.056;3.712;2023-12-29T04:59:51;10.50;99.90
23371;DHT22;11858;51.056;3.712;2023-12-29T05:02:16;10.40;99.90
23371;DHT22;11858;51.056;3.712;2023-12-29T05:04:43;10.50;99.90
23371;DHT22;11858;51.056;3.712;2023-12-29T05:07:09;10.50;99.90
23371;DHT22;11858;51.056;3.712;2023-12-29T05:09:35;10.50;99.90
23371;DHT22;11858;51.056;3.712;2023-12-29T05:12:01;10.50;99.90
23371;DHT22;11858;51.056;3.712;2023-12-29T05:14:26;10.40;99.90
23371;DHT22;11858;51.056;3.712;2023-12-29T05:16:52;10.50;99.90
23371;DHT22;11858;51.056;3.712;2023-12-29T05:19:18;10.60;99.90
23371;DHT22;11858;51.056;3.712;2023-12-29T05:21:43;10.50;99.90
23371;DHT22;11858;51.056;3.712;2023-12-29T05:24:09;10.50;99.90
23371;DHT22;11858;51.056;3.712;2023-12-29T05:26:35;10.40;99.90
23371;DHT22;11858;51.056;3.712;2023-12-29T05:29:02;10.40;99.90
23371;DHT22;11858;51.056;3.712;2023-12-29T05:31:28;10.50;99.90
23371;DHT22;11858;51.056;3.712;2023-12-29T05:33:53;10.40;99.90
23371;DHT22;11858;51.056;3.712;2023-12-29T05:36:20;10.50;99.90
23371;DHT22;11858;51.056;3.712;2023-12-29T05:38:46;10.50;99.90
23371;DHT22;11858;51.056;3.712;2023-12-29T05:41:15;10.50;99.90
23371;DHT22;11858;51.056;3.712;2023-12-29T05:43:41;10.50;99.90
23371;DHT22;11858;51.056;3.712;2023-12-29T05:46:11;10.50;99.90
23371;DHT22;11858;51.056;3.712;2023-12-29T05:48:38;10.50;99.90
23371;DHT22;11858;51.056;3.712;2023-12-29T05:51:10;10.50;99.90
23371;DHT22;11858;51.056;3.712;2023-12-29T05:53:39;10.40;99.90
23371;DHT22;11858;51.056;3.712;2023-12-29T05:56:06;10.40;99.90
23371;DHT22;11858;51.056;3.712;2023-12-29T05:58:31;10.40;99.90
23371;DHT22;11858;51.056;3.712;2023-12-29T06:00:57;10.40;99.90
23371;DHT22;11858;51.056;3.712;2023-12-29T06:03:27;10.30;99.90
23371;DHT22;11858;51.056;3.712;2023-12-29T06:05:53;10.40;99.90
23371;DHT22;11858;51.056;3.712;2023-12-29T06:08:19;10.30;99.90
23371;DHT22;11858;51.056;3.712;2023-12-29T06:10:45;10.30;99.90
23371;DHT22;11858;51.056;3.712;2023-12-29T06:13:10;10.30;99.90
23371;DHT22;11858;51.056;3.712;2023-12-29T06:15:36;10.20;99.90
23371;DHT22;11858;51.056;3.712;2023-12-29T06:18:02;10.20;99.90
23371;DHT22;11858;51.056;3.712;2023-12-29T06:20:28;10.30;99.90
23371;DHT22;11858;51.056;3.712;2023-12-29T06:22:55;10.20;99.90
23371;DHT22;11858;51.056;3.712;2023-12-29T06:25:21;10.20;99.90
23371;DHT22;11858;51.056;3.712;2023-12-29T06:27:47;10.10;99.90
23371;DHT22;11858;51.056;3.712;2023-12-29T06:30:13;10.10;99.90
23371;DHT22;11858;51.056;3.712;2023-12-29T06:32:40;10.20;99.90
23371;DHT22;11858;51.056;3.712;2023-12-29T06:35:06;10.20;99.90
23371;DHT22;11858;51.056;3.712;2023-12-29T06:37:32;10.20;99.90
23371;DHT22;11858;51.056;3.712;2023-12-29T06:39:58;10.30;99.90
23371;DHT22;11858;51.056;3.712;2023-12-29T06:42:24;10.20;99.90
23371;DHT22;11858;51.056;3.712;2023-12-29T06:44:50;10.20;99.90
23371;DHT22;11858;51.056;3.712;2023-12-29T06:47:16;10.10;99.90
23371;DHT22;11858;51.056;3.712;2023-12-29T06:49:41;10.20;99.90
23371;DHT22;11858;51.056;3.712;2023-12-29T06:52:07;10.20;99.90
23371;DHT22;11858;51.056;3.712;2023-12-29T06:54:36;10.20;99.90
23371;DHT22;11858;51.056;3.712;2023-12-29T06:57:01;10.20;99.90
23371;DHT22;11858;51.056;3.712;2023-12-29T06:59:27;10.10;99.90
23371;DHT22;11858;51.056;3.712;2023-12-29T07:01:53;10.20;99.90
23371;DHT22;11858;51.056;3.712;2023-12-29T07:04:19;10.20;99.90
23371;DHT22;11858;51.056;3.712;2023-12-29T07:06:44;10.20;99.90
23371;DHT22;11858;51.056;3.712;2023-12-29T07:09:10;10.20;99.90
23371;DHT22;11858;51.056;3.712;2023-12-29T07:11:36;10.10;99.90
23371;DHT22;11858;51.056;3.712;2023-12-29T07:14:02;10.20;99.90
23371;DHT22;11858;51.056;3.712;2023-12-29T07:16:28;10.20;99.90
23371;DHT22;11858;51.056;3.712;2023-12-29T07:18:53;10.20;99.90
23371;DHT22;11858;51.056;3.712;2023-12-29T07:21:19;10.30;99.90
23371;DHT22;11858;51.056;3.712;2023-12-29T07:23:45;10.20;99.90
23371;DHT22;11858;51.056;3.712;2023-12-29T07:26:11;10.40;99.90
23371;DHT22;11858;51.056;3.712;2023-12-29T07:28:36;10.30;99.90
23371;DHT22;11858;51.056;3.712;2023-12-29T07:31:02;10.40;99.90
23371;DHT22;11858;51.056;3.712;2023-12-29T07:33:28;10.40;99.90
23371;DHT22;11858;51.056;3.712;2023-12-29T07:35:54;10.40;99.90
23371;DHT22;11858;51.056;3.712;2023-12-29T07:38:20;10.50;99.90
23371;DHT22;11858;51.056;3.712;2023-12-29T07:40:45;10.50;99.90
23371;DHT22;11858;51.056;3.712;2023-12-29T07:43:13;10.50;99.90
23371;DHT22;11858;51.056;3.712;2023-12-29T07:45:39;10.50;99.90
23371;DHT22;11858;51.056;3.712;2023-12-29T07:48:05;10.60;99.90
23371;DHT22;11858;51.056;3.712;2023-12-29T07:50:31;10.40;99.90
23371;DHT22;11858;51.056;3.712;2023-12-29T07:52:57;10.20;99.90
23371;DHT22;11858;51.056;3.712;2023-12-29T07:55:23;10.00;99.90
23371;DHT22;11858;51.056;3.712;2023-12-29T07:57:48;9.90;99.90
23371;DHT22;11858;51.056;3.712;2023-12-29T08:00:15;9.90;99.90
23371;DHT22;11858;51.056;3.712;2023-12-29T08:02:41;9.90;99.90
23371;DHT22;11858;51.056;3.712;2023-12-29T08:05:07;9.80;99.90
23371;DHT22;11858;51.056;3.712;2023-12-29T08:07:36;9.80;99.90
23371;DHT22;11858;51.056;3.712;2023-12-29T08:10:06;9.80;99.90
23371;DHT22;11858;51.056;3.712;2023-12-29T08:12:32;9.80;99.90
23371;DHT22;11858;51.056;3.712;2023-12-29T08:15:04;9.80;99.90
23371;DHT22;11858;51.056;3.712;2023-12-29T08:17:31;9.90;99.90
23371;DHT22;11858;51.056;3.712;2023-12-29T08:19:57;10.00;99.90
23371;DHT22;11858;51.056;3.712;2023-12-29T08:22:22;9.90;99.90
23371;DHT22;11858;51.056;3.712;2023-12-29T08:24:48;9.90;99.90
23371;DHT22;11858;51.056;3.712;2023-12-29T08:27:14;9.80;99.90
23371;DHT22;11858;51.056;3.712;2023-12-29T08:29:40;9.80;99.90
23371;DHT22;11858;51.056;3.712;2023-12-29T08:32:07;9.90;99.90
23371;DHT22;11858;51.056;3.712;2023-12-29T08:34:32;9.90;99.90
23371;DHT22;11858;51.056;3.712;2023-12-29T08:37:00;9.90;99.90
23371;DHT22;11858;51.056;3.712;2023-12-29T08:39:25;10.00;99.90
23371;DHT22;11858;51.056;3.712;2023-12-29T08:41:51;10.00;99.90
23371;DHT22;11858;51.056;3.712;2023-12-29T08:44:17;10.00;99.90
23371;DHT22;11858;51.056;3.712;2023-12-29T08:46:43;10.00;99.90
23371;DHT22;11858;51.056;3.712;2023-12-29T08:49:08;10.00;99.90
23371;DHT22;11858;51.056;3.712;2023-12-29T08:51:34;10.00;99.90
23371;DHT22;11858;51.056;3.712;2023-12-29T08:54:00;10.00;99.90
23371;DHT22;11858;51.056;3.712;2023-12-29T08:56:26;10.10;99.90
23371;DHT22;11858;51.056;3.712;2023-12-29T08:58:51;10.10;99.90
23371;DHT22;11858;51.056;3.712;2023-12-29T09:01:18;10.10;99.90
23371;DHT22;11858;51.056;3.712;2023-12-29T09:03:44;10.10;99.90
23371;DHT22;11858;51.056;3.712;2023-12-29T09:06:10;10.20;99.90
23371;DHT22;11858;51.056;3.712;2023-12-29T09:08:36;10.30;99.90
23371;DHT22;11858;51.056;3.712;2023-12-29T09:11:02;10.30;99.90
23371;DHT22;11858;51.056;3.712;2023-12-29T09:13:28;10.20;99.90
23371;DHT22;11858;51.056;3.712;2023-12-29T09:15:55;10.30;99.90
23371;DHT22;11858;51.056;3.712;2023-12-29T09:18:21;10.30;99.90
23371;DHT22;11858;51.056;3.712;2023-12-29T09:20:47;10.40;99.90
23371;DHT22;11858;51.056;3.712;2023-12-29T09:23:13;10.40;99.90
23371;DHT22;11858;51.056;3.712;2023-12-29T09:25:40;10.50;99.90
23371;DHT22;11858;51.056;3.712;2023-12-29T09:28:06;10.50;99.90
23371;DHT22;11858;51.056;3.712;2023-12-29T09:30:32;10.50;99.90
23371;DHT22;11858;51.056;3.712;2023-12-29T09:32:57;10.50;99.90
23371;DHT22;11858;51.056;3.712;2023-12-29T09:35:23;10.50;99.90
23371;DHT22;11858;51.056;3.712;2023-12-29T09:37:50;10.50;99.90
23371;DHT22;11858;51.056;3.712;2023-12-29T09:40:15;10.60;99.90
23371;DHT22;11858;51.056;3.712;2023-12-29T09:42:45;10.60;99.90
23371;DHT22;11858;51.056;3.712;2023-12-29T09:45:12;10.70;99.90
23371;DHT22;11858;51.056;3.712;2023-12-29T09:47:41;10.70;99.90
23371;DHT22;11858;51.056;3.712;2023-12-29T09:50:11;10.70;99.90
23371;DHT22;11858;51.056;3.712;2023-12-29T09:52:38;10.70;99.90
23371;DHT22;11858;51.056;3.712;2023-12-29T09:55:05;10.70;99.90
23371;DHT22;11858;51.056;3.712;2023-12-29T09:57:35;10.70;99.90
23371;DHT22;11858;51.056;3.712;2023-12-29T10:00:02;10.60;99.90
23371;DHT22;11858;51.056;3.712;2023-12-29T10:02:28;10.60;99.90
23371;DHT22;11858;51.056;3.712;2023-12-29T10:04:54;10.60;99.90
23371;DHT22;11858;51.056;3.712;2023-12-29T10:07:25;10.60;99.90
23371;DHT22;11858;51.056;3.712;2023-12-29T10:10:01;10.60;99.90
23371;DHT22;11858;51.056;3.712;2023-12-29T10:12:28;10.70;99.90
23371;DHT22;11858;51.056;3.712;2023-12-29T10:18:07;10.80;99.90
23371;DHT22;11858;51.056;3.712;2023-12-29T10:20:50;10.90;99.90
23371;DHT22;11858;51.056;3.712;2023-12-29T10:26:13;11.10;99.90
23371;DHT22;11858;51.056;3.712;2023-12-29T10:28:39;11.00;99.90
23371;DHT22;11858;51.056;3.712;2023-12-29T10:31:05;11.10;99.90
23371;DHT22;11858;51.056;3.712;2023-12-29T10:33:31;11.10;99.90
23371;DHT22;11858;51.056;3.712;2023-12-29T10:36:02;11.20;99.90
23371;DHT22;11858;51.056;3.712;2023-12-29T10:38:29;11.40;99.90
23371;DHT22;11858;51.056;3.712;2023-12-29T10:43:36;11.50;99.90
23371;DHT22;11858;51.056;3.712;2023-12-29T10:46:11;11.50;99.90
23371;DHT22;11858;51.056;3.712;2023-12-29T10:48:37;11.60;99.90
23371;DHT22;11858;51.056;3.712;2023-12-29T10:51:04;11.50;99.90
23371;DHT22;11858;51.056;3.712;2023-12-29T10:53:38;11.60;99.90
23371;DHT22;11858;51.056;3.712;2023-12-29T10:56:05;11.60;99.90
23371;DHT22;11858;51.056;3.712;2023-12-29T10:58:35;11.60;99.90
23371;DHT22;11858;51.056;3.712;2023-12-29T11:01:14;11.60;99.90
23371;DHT22;11858;51.056;3.712;2023-12-29T11:03:40;11.50;99.90
23371;DHT22;11858;51.056;3.712;2023-12-29T11:06:06;11.60;99.90
23371;DHT22;11858;51.056;3.712;2023-12-29T11:08:35;11.60;99.90
23371;DHT22;11858;51.056;3.712;2023-12-29T11:11:01;11.60;99.90
23371;DHT22;11858;51.056;3.712;2023-12-29T11:13:29;11.60;99.90
23371;DHT22;11858;51.056;3.712;2023-12-29T11:15:55;11.60;99.90
23371;DHT22;11858;51.056;3.712;2023-12-29T11:18:22;11.60;99.90
23371;DHT22;11858;51.056;3.712;2023-12-29T11:20:48;11.70;99.90
23371;DHT22;11858;51.056;3.712;2023-12-29T11:23:14;11.60;99.90
23371;DHT22;11858;51.056;3.712;2023-12-29T11:25:40;11.60;99.90
23371;DHT22;11858;51.056;3.712;2023-12-29T11:28:10;11.60;99.90
23371;DHT22;11858;51.056;3.712;2023-12-29T11:30:39;11.60;99.90
23371;DHT22;11858;51.056;3.712;2023-12-29T11:33:09;11.60;99.90
23371;DHT22;11858;51.056;3.712;2023-12-29T11:41:19;11.60;99.90
23371;DHT22;11858;51.056;3.712;2023-12-29T11:43:58;11.60;99.90
23371;DHT22;11858;51.056;3.712;2023-12-29T11:46:40;11.60;99.90
23371;DHT22;11858;51.056;3.712;2023-12-29T11:49:09;11.50;99.90
23371;DHT22;11858;51.056;3.712;2023-12-29T11:51:46;11.60;99.90
23371;DHT22;11858;51.056;3.712;2023-12-29T11:54:25;11.60;99.90
23371;DHT22;11858;51.056;3.712;2023-12-29T11:56:51;11.70;99.90
23371;DHT22;11858;51.056;3.712;2023-12-29T12:01:50;11.70;99.90
23371;DHT22;11858;51.056;3.712;2023-12-29T12:04:45;11.70;99.90
23371;DHT22;11858;51.056;3.712;2023-12-29T12:09:49;11.60;99.90
23371;DHT22;11858;51.056;3.712;2023-12-29T12:12:39;11.50;99.90
23371;DHT22;11858;51.056;3.712;2023-12-29T12:17:53;11.60;99.90
23371;DHT22;11858;51.056;3.712;2023-12-29T12:20:18;11.60;99.90
23371;DHT22;11858;51.056;3.712;2023-12-29T12:22:44;11.70;99.90
23371;DHT22;11858;51.056;3.712;2023-12-29T12:25:13;11.70;99.90
23371;DHT22;11858;51.056;3.712;2023-12-29T12:27:39;11.60;99.90
23371;DHT22;11858;51.056;3.712;2023-12-29T12:30:05;11.50;99.90
23371;DHT22;11858;51.056;3.712;2023-12-29T12:32:32;11.60;99.90
23371;DHT22;11858;51.056;3.712;2023-12-29T12:34:58;11.60;99.90
23371;DHT22;11858;51.056;3.712;2023-12-29T12:37:27;11.70;99.90
23371;DHT22;11858;51.056;3.712;2023-12-29T12:39:53;11.60;99.90
23371;DHT22;11858;51.056;3.712;2023-12-29T12:42:19;11.60;99.90
23371;DHT22;11858;51.056;3.712;2023-12-29T12:45:10;11.60;99.90
23371;DHT22;11858;51.056;3.712;2023-12-29T12:47:43;11.60;99.90
23371;DHT22;11858;51.056;3.712;2023-12-29T12:50:11;11.70;99.90
23371;DHT22;11858;51.056;3.712;2023-12-29T12:52:38;11.90;99.90
23371;DHT22;11858;51.056;3.712;2023-12-29T12:55:08;11.90;99.90
23371;DHT22;11858;51.056;3.712;2023-12-29T12:57:36;11.90;99.90
23371;DHT22;11858;51.056;3.712;2023-12-29T13:00:03;11.90;99.90
23371;DHT22;11858;51.056;3.712;2023-12-29T13:02:30;11.90;99.90
23371;DHT22;11858;51.056;3.712;2023-12-29T13:04:57;11.90;99.90
23371;DHT22;11858;51.056;3.712;2023-12-29T13:07:23;12.00;99.90
23371;DHT22;11858;51.056;3.712;2023-12-29T13:09:50;12.10;99.90
23371;DHT22;11858;51.056;3.712;2023-12-29T13:12:18;12.20;99.90
23371;DHT22;11858;51.056;3.712;2023-12-29T13:14:44;12.10;99.90
23371;DHT22;11858;51.056;3.712;2023-12-29T13:17:13;12.10;99.90
23371;DHT22;11858;51.056;3.712;2023-12-29T13:19:39;12.10;99.90
23371;DHT22;11858;51.056;3.712;2023-12-29T13:22:10;12.10;99.90
23371;DHT22;11858;51.056;3.712;2023-12-29T13:24:44;12.00;99.90
23371;DHT22;11858;51.056;3.712;2023-12-29T13:27:11;12.00;99.90
23371;DHT22;11858;51.056;3.712;2023-12-29T13:29:38;11.90;99.90
23371;DHT22;11858;51.056;3.712;2023-12-29T13:35:11;12.00;99.90
23371;DHT22;11858;51.056;3.712;2023-12-29T13:37:53;11.90;99.90
23371;DHT22;11858;51.056;3.712;2023-12-29T13:40:27;11.90;99.90
23371;DHT22;11858;51.056;3.712;2023-12-29T13:43:01;12.00;99.90
23371;DHT22;11858;51.056;3.712;2023-12-29T13:45:29;11.90;99.90
23371;DHT22;11858;51.056;3.712;2023-12-29T13:47:55;11.90;99.90
23371;DHT22;11858;51.056;3.712;2023-12-29T13:50:22;12.00;99.90
23371;DHT22;11858;51.056;3.712;2023-12-29T13:52:47;12.00;99.90
23371;DHT22;11858;51.056;3.712;2023-12-29T13:55:21;11.90;99.90
23371;DHT22;11858;51.056;3.712;2023-12-29T13:57:48;11.90;99.90
23371;DHT22;11858;51.056;3.712;2023-12-29T14:00:21;11.70;99.90
23371;DHT22;11858;51.056;3.712;2023-12-29T14:10:32;11.80;99.90
23371;DHT22;11858;51.056;3.712;2023-12-29T14:13:08;11.70;99.90
23371;DHT22;11858;51.056;3.712;2023-12-29T14:15:36;11.70;99.90
23371;DHT22;11858;51.056;3.712;2023-12-29T14:20:39;11.70;99.90
23371;DHT22;11858;51.056;3.712;2023-12-29T14:23:08;11.70;99.90
23371;DHT22;11858;51.056;3.712;2023-12-29T14:25:35;11.60;99.90
23371;DHT22;11858;51.056;3.712;2023-12-29T14:28:03;11.50;99.90
23371;DHT22;11858;51.056;3.712;2023-12-29T14:30:29;11.40;99.90
23371;DHT22;11858;51.056;3.712;2023-12-29T14:32:59;11.20;99.90
23371;DHT22;11858;51.056;3.712;2023-12-29T14:35:25;11.30;99.90
23371;DHT22;11858;51.056;3.712;2023-12-29T14:37:51;11.30;99.90
23371;DHT22;11858;51.056;3.712;2023-12-29T14:40:17;11.30;99.90
23371;DHT22;11858;51.056;3.712;2023-12-29T14:42:42;11.40;99.90
23371;DHT22;11858;51.056;3.712;2023-12-29T14:45:09;11.40;99.90
23371;DHT22;11858;51.056;3.712;2023-12-29T14:47:35;11.30;99.90
23371;DHT22;11858;51.056;3.712;2023-12-29T14:50:01;11.30;99.90
23371;DHT22;11858;51.056;3.712;2023-12-29T14:52:27;11.30;99.90
23371;DHT22;11858;51.056;3.712;2023-12-29T14:54:52;11.20;99.90
23371;DHT22;11858;51.056;3.712;2023-12-29T14:57:18;11.10;99.90
23371;DHT22;11858;51.056;3.712;2023-12-29T14:59:44;11.10;99.90
23371;DHT22;11858;51.056;3.712;2023-12-29T15:02:09;11.10;99.90
23371;DHT22;11858;51.056;3.712;2023-12-29T15:04:36;11.10;99.90
23371;DHT22;11858;51.056;3.712;2023-12-29T15:07:02;11.10;99.90
23371;DHT22;11858;51.056;3.712;2023-12-29T15:09:29;11.10;99.90
23371;DHT22;11858;51.056;3.712;2023-12-29T15:11:56;11.20;99.90
23371;DHT22;11858;51.056;3.712;2023-12-29T15:14:21;11.20;99.90
23371;DHT22;11858;51.056;3.712;2023-12-29T15:16:47;11.30;99.90
23371;DHT22;11858;51.056;3.712;2023-12-29T15:19:13;11.20;99.90
23371;DHT22;11858;51.056;3.712;2023-12-29T15:21:39;11.20;99.90
23371;DHT22;11858;51.056;3.712;2023-12-29T15:24:05;11.10;99.90
23371;DHT22;11858;51.056;3.712;2023-12-29T15:26:31;11.00;99.90
23371;DHT22;11858;51.056;3.712;2023-12-29T15:28:56;11.00;99.90
23371;DHT22;11858;51.056;3.712;2023-12-29T15:31:23;11.00;99.90
23371;DHT22;11858;51.056;3.712;2023-12-29T15:33:50;11.00;99.90
23371;DHT22;11858;51.056;3.712;2023-12-29T15:36:16;11.00;99.90
23371;DHT22;11858;51.056;3.712;2023-12-29T15:38:46;11.00;99.90
23371;DHT22;11858;51.056;3.712;2023-12-29T15:41:12;11.00;99.90
23371;DHT22;11858;51.056;3.712;2023-12-29T15:43:38;11.00;99.90
23371;DHT22;11858;51.056;3.712;2023-12-29T15:46:11;11.00;99.90
23371;DHT22;11858;51.056;3.712;2023-12-29T15:48:37;10.70;99.90
23371;DHT22;11858;51.056;3.712;2023-12-29T15:51:03;10.50;99.90
23371;DHT22;11858;51.056;3.712;2023-12-29T15:53:31;10.30;99.90
23371;DHT22;11858;51.056;3.712;2023-12-29T15:55:57;10.40;99.90
23371;DHT22;11858;51.056;3.712;2023-12-29T15:58:24;10.50;99.90
23371;DHT22;11858;51.056;3.712;2023-12-29T16:00:50;10.50;99.90
23371;DHT22;11858;51.056;3.712;2023-12-29T16:03:15;10.50;99.90
23371;DHT22;11858;51.056;3.712;2023-12-29T16:05:41;10.50;99.90
23371;DHT22;11858;51.056;3.712;2023-12-29T16:08:07;10.60;99.90